sensor_id;sensor_type;location;lat;lon;timestamp;P1;durP1;ratioP1;P2;durP2;ratioP2
44750;SDS011;30477;48.224;11.470;2023-05-07T00:01:30;14.57;;;10.93;;
44750;SDS011;30477;48.224;11.470;2023-05-07T00:03:56;12.23;;;10.57;;
44750;SDS011;30477;48.224;11.470;2023-05-07T00:06:21;14.87;;;10.43;;
44750;SDS011;30477;48.224;11.470;2023-05-07T00:08:47;11.73;;;9.10;;
44750;SDS011;30477;48.224;11.470;2023-05-07T00:11:13;16.60;;;9.70;;
44750;SDS011;30477;48.224;11.470;2023-05-07T00:13:38;14.97;;;9.77;;
44750;SDS011;30477;48.224;11.470;2023-05-07T00:16:03;14.07;;;10.47;;
44750;SDS011;30477;48.224;11.470;2023-05-07T00:20:55;12.65;;;10.30;;
44750;SDS011;30477;48.224;11.470;2023-05-07T00:23:21;12.25;;;10.35;;
44750;SDS011;30477;48.224;11.470;2023-05-07T00:25:46;12.50;;;10.18;;
44750;SDS011;30477;48.224;11.470;2023-05-07T00:28:12;16.20;;;10.73;;
44750;SDS011;30477;48.224;11.470;2023-05-07T00:30:37;13.77;;;10.83;;
44750;SDS011;30477;48.224;11.470;2023-05-07T00:33:02;13.00;;;10.73;;
44750;SDS011;30477;48.224;11.470;2023-05-07T00:35:28;13.23;;;11.87;;
44750;SDS011;30477;48.224;11.470;2023-05-07T00:37:54;18.83;;;11.45;;
44750;SDS011;30477;48.224;11.470;2023-05-07T00:40:20;11.82;;;10.38;;
44750;SDS011;30477;48.224;11.470;2023-05-07T00:42:45;15.73;;;11.20;;
44750;SDS011;30477;48.224;11.470;2023-05-07T00:47:37;12.80;;;11.20;;
44750;SDS011;30477;48.224;11.470;2023-05-07T00:50:03;14.37;;;11.57;;
44750;SDS011;30477;48.224;11.470;2023-05-07T00:52:29;13.07;;;11.73;;
44750;SDS011;30477;48.224;11.470;2023-05-07T00:54:55;14.82;;;12.00;;
44750;SDS011;30477;48.224;11.470;2023-05-07T00:57:20;12.60;;;11.30;;
44750;SDS011;30477;48.224;11.470;2023-05-07T00:59:47;15.25;;;12.23;;
44750;SDS011;30477;48.224;11.470;2023-05-07T01:02:13;13.80;;;10.93;;
44750;SDS011;30477;48.224;11.470;2023-05-07T01:04:39;12.40;;;11.07;;
44750;SDS011;30477;48.224;11.470;2023-05-07T01:07:04;12.77;;;11.03;;
44750;SDS011;30477;48.224;11.470;2023-05-07T01:09:30;13.35;;;11.90;;
44750;SDS011;30477;48.224;11.470;2023-05-07T01:11:56;13.05;;;10.98;;
44750;SDS011;30477;48.224;11.470;2023-05-07T01:14:23;12.35;;;10.85;;
44750;SDS011;30477;48.224;11.470;2023-05-07T01:16:48;14.88;;;12.50;;
44750;SDS011;30477;48.224;11.470;2023-05-07T01:19:16;15.68;;;11.93;;
44750;SDS011;30477;48.224;11.470;2023-05-07T01:21:46;14.43;;;12.82;;
44750;SDS011;30477;48.224;11.470;2023-05-07T01:24:13;14.73;;;12.75;;
44750;SDS011;30477;48.224;11.470;2023-05-07T01:26:39;14.32;;;12.15;;
44750;SDS011;30477;48.224;11.470;2023-05-07T01:29:05;15.57;;;12.87;;
44750;SDS011;30477;48.224;11.470;2023-05-07T01:31:30;14.10;;;12.27;;
44750;SDS011;30477;48.224;11.470;2023-05-07T01:33:58;14.95;;;12.30;;
44750;SDS011;30477;48.224;11.470;2023-05-07T01:36:25;14.77;;;13.07;;
44750;SDS011;30477;48.224;11.470;2023-05-07T01:38:52;13.80;;;12.38;;
44750;SDS011;30477;48.224;11.470;2023-05-07T01:41:18;14.32;;;12.13;;
44750;SDS011;30477;48.224;11.470;2023-05-07T01:43:44;14.02;;;12.52;;
44750;SDS011;30477;48.224;11.470;2023-05-07T01:46:11;16.08;;;12.95;;
44750;SDS011;30477;48.224;11.470;2023-05-07T01:48:37;13.98;;;12.57;;
44750;SDS011;30477;48.224;11.470;2023-05-07T01:51:03;16.20;;;12.85;;
44750;SDS011;30477;48.224;11.470;2023-05-07T01:53:35;14.07;;;11.77;;
44750;SDS011;30477;48.224;11.470;2023-05-07T01:56:01;12.90;;;11.60;;
44750;SDS011;30477;48.224;11.470;2023-05-07T01:58:26;17.27;;;11.90;;
44750;SDS011;30477;48.224;11.470;2023-05-07T02:00:51;13.90;;;12.53;;
44750;SDS011;30477;48.224;11.470;2023-05-07T02:03:16;13.03;;;11.63;;
44750;SDS011;30477;48.224;11.470;2023-05-07T02:05:42;13.67;;;11.70;;
44750;SDS011;30477;48.224;11.470;2023-05-07T02:08:07;12.63;;;11.37;;
44750;SDS011;30477;48.224;11.470;2023-05-07T02:10:32;12.27;;;10.93;;
44750;SDS011;30477;48.224;11.470;2023-05-07T02:12:58;13.30;;;11.30;;
44750;SDS011;30477;48.224;11.470;2023-05-07T02:18:08;14.37;;;12.43;;
44750;SDS011;30477;48.224;11.470;2023-05-07T02:20:34;12.68;;;11.38;;
44750;SDS011;30477;48.224;11.470;2023-05-07T02:22:59;13.02;;;11.75;;
44750;SDS011;30477;48.224;11.470;2023-05-07T02:25:25;13.13;;;11.77;;
44750;SDS011;30477;48.224;11.470;2023-05-07T02:27:50;15.70;;;11.63;;
44750;SDS011;30477;48.224;11.470;2023-05-07T02:30:16;13.87;;;11.50;;
44750;SDS011;30477;48.224;11.470;2023-05-07T02:32:41;14.13;;;12.00;;
44750;SDS011;30477;48.224;11.470;2023-05-07T02:35:07;13.30;;;11.90;;
44750;SDS011;30477;48.224;11.470;2023-05-07T02:37:32;15.15;;;12.55;;
44750;SDS011;30477;48.224;11.470;2023-05-07T02:39:58;14.70;;;11.90;;
44750;SDS011;30477;48.224;11.470;2023-05-07T02:42:23;12.43;;;11.23;;
44750;SDS011;30477;48.224;11.470;2023-05-07T02:44:48;14.10;;;12.23;;
44750;SDS011;30477;48.224;11.470;2023-05-07T02:47:14;15.57;;;12.57;;
44750;SDS011;30477;48.224;11.470;2023-05-07T02:49:40;16.25;;;12.15;;
44750;SDS011;30477;48.224;11.470;2023-05-07T02:52:06;15.57;;;13.10;;
44750;SDS011;30477;48.224;11.470;2023-05-07T02:54:31;18.23;;;12.07;;
44750;SDS011;30477;48.224;11.470;2023-05-07T02:56:57;13.97;;;12.00;;
44750;SDS011;30477;48.224;11.470;2023-05-07T02:59:23;13.17;;;10.70;;
44750;SDS011;30477;48.224;11.470;2023-05-07T03:01:48;13.82;;;11.82;;
44750;SDS011;30477;48.224;11.470;2023-05-07T03:04:14;13.17;;;11.63;;
44750;SDS011;30477;48.224;11.470;2023-05-07T03:09:05;15.63;;;11.60;;
44750;SDS011;30477;48.224;11.470;2023-05-07T03:11:31;16.20;;;12.40;;
44750;SDS011;30477;48.224;11.470;2023-05-07T03:13:56;13.50;;;11.47;;
44750;SDS011;30477;48.224;11.470;2023-05-07T03:16:21;12.83;;;10.50;;
44750;SDS011;30477;48.224;11.470;2023-05-07T03:18:47;13.03;;;10.50;;
44750;SDS011;30477;48.224;11.470;2023-05-07T03:21:12;12.73;;;10.50;;
44750;SDS011;30477;48.224;11.470;2023-05-07T03:23:37;12.97;;;10.37;;
44750;SDS011;30477;48.224;11.470;2023-05-07T03:26:03;12.67;;;9.87;;
44750;SDS011;30477;48.224;11.470;2023-05-07T03:28:28;13.93;;;10.47;;
44750;SDS011;30477;48.224;11.470;2023-05-07T03:30:54;11.30;;;10.20;;
44750;SDS011;30477;48.224;11.470;2023-05-07T03:33:19;11.90;;;10.70;;
44750;SDS011;30477;48.224;11.470;2023-05-07T03:35:44;14.13;;;10.77;;
44750;SDS011;30477;48.224;11.470;2023-05-07T03:38:10;11.37;;;10.13;;
44750;SDS011;30477;48.224;11.470;2023-05-07T03:40:35;12.53;;;9.50;;
44750;SDS011;30477;48.224;11.470;2023-05-07T03:43:01;15.53;;;10.73;;
44750;SDS011;30477;48.224;11.470;2023-05-07T03:45:26;11.23;;;10.00;;
44750;SDS011;30477;48.224;11.470;2023-05-07T03:47:51;16.83;;;11.13;;
44750;SDS011;30477;48.224;11.470;2023-05-07T03:50:17;14.60;;;10.33;;
44750;SDS011;30477;48.224;11.470;2023-05-07T03:52:42;13.60;;;10.80;;
44750;SDS011;30477;48.224;11.470;2023-05-07T03:55:07;12.57;;;11.23;;
44750;SDS011;30477;48.224;11.470;2023-05-07T03:57:33;14.27;;;11.25;;
44750;SDS011;30477;48.224;11.470;2023-05-07T03:59:58;14.07;;;11.70;;
44750;SDS011;30477;48.224;11.470;2023-05-07T04:02:24;12.57;;;11.27;;
44750;SDS011;30477;48.224;11.470;2023-05-07T04:04:49;13.07;;;10.67;;
44750;SDS011;30477;48.224;11.470;2023-05-07T04:07:15;12.10;;;10.80;;
44750;SDS011;30477;48.224;11.470;2023-05-07T04:09:40;14.27;;;11.30;;
44750;SDS011;30477;48.224;11.470;2023-05-07T04:12:05;15.27;;;11.03;;
44750;SDS011;30477;48.224;11.470;2023-05-07T04:14:31;13.20;;;11.23;;
44750;SDS011;30477;48.224;11.470;2023-05-07T04:16:57;16.15;;;11.80;;
44750;SDS011;30477;48.224;11.470;2023-05-07T04:19:24;14.48;;;11.45;;
44750;SDS011;30477;48.224;11.470;2023-05-07T04:21:49;13.60;;;11.33;;
44750;SDS011;30477;48.224;11.470;2023-05-07T04:24:15;15.17;;;11.20;;
44750;SDS011;30477;48.224;11.470;2023-05-07T04:26:40;17.88;;;12.00;;
44750;SDS011;30477;48.224;11.470;2023-05-07T04:29:06;13.37;;;11.97;;
44750;SDS011;30477;48.224;11.470;2023-05-07T04:31:31;17.92;;;13.15;;
44750;SDS011;30477;48.224;11.470;2023-05-07T04:33:57;18.53;;;13.10;;
44750;SDS011;30477;48.224;11.470;2023-05-07T04:36:22;17.90;;;13.40;;
44750;SDS011;30477;48.224;11.470;2023-05-07T04:38:47;18.73;;;12.53;;
44750;SDS011;30477;48.224;11.470;2023-05-07T04:41:13;13.33;;;10.97;;
44750;SDS011;30477;48.224;11.470;2023-05-07T04:43:38;13.47;;;10.47;;
44750;SDS011;30477;48.224;11.470;2023-05-07T04:46:03;14.03;;;10.67;;
44750;SDS011;30477;48.224;11.470;2023-05-07T04:48:29;13.38;;;10.40;;
44750;SDS011;30477;48.224;11.470;2023-05-07T04:50:55;13.53;;;10.03;;
44750;SDS011;30477;48.224;11.470;2023-05-07T04:53:20;15.37;;;11.17;;
44750;SDS011;30477;48.224;11.470;2023-05-07T04:55:46;16.17;;;10.93;;
44750;SDS011;30477;48.224;11.470;2023-05-07T04:58:12;14.77;;;11.50;;
44750;SDS011;30477;48.224;11.470;2023-05-07T05:00:38;12.98;;;11.57;;
44750;SDS011;30477;48.224;11.470;2023-05-07T05:03:04;15.48;;;12.30;;
44750;SDS011;30477;48.224;11.470;2023-05-07T05:05:30;14.55;;;11.95;;
44750;SDS011;30477;48.224;11.470;2023-05-07T05:07:55;13.03;;;11.50;;
44750;SDS011;30477;48.224;11.470;2023-05-07T05:10:21;15.10;;;12.20;;
44750;SDS011;30477;48.224;11.470;2023-05-07T05:12:47;15.90;;;11.25;;
44750;SDS011;30477;48.224;11.470;2023-05-07T05:15:12;16.20;;;12.13;;
44750;SDS011;30477;48.224;11.470;2023-05-07T05:17:38;10.73;;;9.63;;
44750;SDS011;30477;48.224;11.470;2023-05-07T05:20:04;10.50;;;9.40;;
44750;SDS011;30477;48.224;11.470;2023-05-07T05:22:30;10.50;;;9.25;;
44750;SDS011;30477;48.224;11.470;2023-05-07T05:24:56;10.43;;;9.32;;
44750;SDS011;30477;48.224;11.470;2023-05-07T05:27:22;9.68;;;8.77;;
44750;SDS011;30477;48.224;11.470;2023-05-07T05:29:47;9.70;;;8.73;;
44750;SDS011;30477;48.224;11.470;2023-05-07T05:32:12;10.47;;;8.73;;
44750;SDS011;30477;48.224;11.470;2023-05-07T05:34:38;9.40;;;8.50;;
44750;SDS011;30477;48.224;11.470;2023-05-07T05:37:03;9.90;;;9.00;;
44750;SDS011;30477;48.224;11.470;2023-05-07T05:39:29;9.33;;;8.43;;
44750;SDS011;30477;48.224;11.470;2023-05-07T05:41:54;7.87;;;7.17;;
44750;SDS011;30477;48.224;11.470;2023-05-07T05:44:19;9.10;;;8.10;;
44750;SDS011;30477;48.224;11.470;2023-05-07T05:46:45;10.10;;;7.57;;
44750;SDS011;30477;48.224;11.470;2023-05-07T05:49:10;8.10;;;7.30;;
44750;SDS011;30477;48.224;11.470;2023-05-07T05:51:35;8.47;;;7.53;;
44750;SDS011;30477;48.224;11.470;2023-05-07T05:54:01;10.50;;;7.97;;
44750;SDS011;30477;48.224;11.470;2023-05-07T05:56:26;7.57;;;6.97;;
44750;SDS011;30477;48.224;11.470;2023-05-07T05:58:52;8.02;;;6.97;;
44750;SDS011;30477;48.224;11.470;2023-05-07T06:01:17;8.53;;;7.60;;
44750;SDS011;30477;48.224;11.470;2023-05-07T06:03:43;10.15;;;7.30;;
44750;SDS011;30477;48.224;11.470;2023-05-07T06:06:09;7.38;;;6.68;;
44750;SDS011;30477;48.224;11.470;2023-05-07T06:08:34;7.30;;;6.60;;
44750;SDS011;30477;48.224;11.470;2023-05-07T06:11:00;7.00;;;6.40;;
44750;SDS011;30477;48.224;11.470;2023-05-07T06:13:26;8.57;;;5.82;;
44750;SDS011;30477;48.224;11.470;2023-05-07T06:18:16;7.63;;;6.80;;
44750;SDS011;30477;48.224;11.470;2023-05-07T06:23:07;8.10;;;6.40;;
44750;SDS011;30477;48.224;11.470;2023-05-07T06:27:57;8.13;;;7.32;;
44750;SDS011;30477;48.224;11.470;2023-05-07T06:32:48;8.33;;;7.60;;
44750;SDS011;30477;48.224;11.470;2023-05-07T06:37:39;7.40;;;6.60;;
44750;SDS011;30477;48.224;11.470;2023-05-07T06:42:31;7.88;;;7.07;;
44750;SDS011;30477;48.224;11.470;2023-05-07T06:47:21;7.97;;;6.50;;
44750;SDS011;30477;48.224;11.470;2023-05-07T06:49:46;9.77;;;6.57;;
44750;SDS011;30477;48.224;11.470;2023-05-07T06:54:37;8.33;;;6.90;;
44750;SDS011;30477;48.224;11.470;2023-05-07T06:57:02;10.18;;;6.53;;
44750;SDS011;30477;48.224;11.470;2023-05-07T06:59:28;6.97;;;6.35;;
44750;SDS011;30477;48.224;11.470;2023-05-07T07:04:18;6.40;;;5.80;;
44750;SDS011;30477;48.224;11.470;2023-05-07T07:06:44;6.65;;;5.95;;
44750;SDS011;30477;48.224;11.470;2023-05-07T07:09:10;7.40;;;6.32;;
44750;SDS011;30477;48.224;11.470;2023-05-07T07:11:36;7.97;;;5.85;;
44750;SDS011;30477;48.224;11.470;2023-05-07T07:14:01;7.25;;;6.03;;
44750;SDS011;30477;48.224;11.470;2023-05-07T07:16:26;6.18;;;5.57;;
44750;SDS011;30477;48.224;11.470;2023-05-07T07:18:52;6.67;;;5.47;;
44750;SDS011;30477;48.224;11.470;2023-05-07T07:23:42;5.60;;;5.07;;
44750;SDS011;30477;48.224;11.470;2023-05-07T07:26:08;5.18;;;4.72;;
44750;SDS011;30477;48.224;11.470;2023-05-07T07:30:58;5.93;;;4.47;;
44750;SDS011;30477;48.224;11.470;2023-05-07T07:35:49;5.15;;;4.45;;
44750;SDS011;30477;48.224;11.470;2023-05-07T07:40:40;4.57;;;4.10;;
44750;SDS011;30477;48.224;11.470;2023-05-07T07:45:31;5.70;;;4.10;;
44750;SDS011;30477;48.224;11.470;2023-05-07T07:50:21;7.47;;;3.80;;
44750;SDS011;30477;48.224;11.470;2023-05-07T07:55:13;4.82;;;3.38;;
44750;SDS011;30477;48.224;11.470;2023-05-07T07:57:38;4.68;;;3.42;;
44750;SDS011;30477;48.224;11.470;2023-05-07T08:02:31;5.13;;;4.10;;
44750;SDS011;30477;48.224;11.470;2023-05-07T08:04:56;3.90;;;3.60;;
44750;SDS011;30477;48.224;11.470;2023-05-07T08:07:21;4.00;;;3.70;;
44750;SDS011;30477;48.224;11.470;2023-05-07T08:09:47;3.83;;;3.35;;
44750;SDS011;30477;48.224;11.470;2023-05-07T08:12:13;3.58;;;3.25;;
44750;SDS011;30477;48.224;11.470;2023-05-07T08:14:39;4.80;;;3.80;;
44750;SDS011;30477;48.224;11.470;2023-05-07T08:17:04;4.35;;;3.95;;
44750;SDS011;30477;48.224;11.470;2023-05-07T08:19:30;4.23;;;3.83;;
44750;SDS011;30477;48.224;11.470;2023-05-07T08:21:55;6.10;;;3.67;;
44750;SDS011;30477;48.224;11.470;2023-05-07T08:24:21;3.92;;;3.60;;
44750;SDS011;30477;48.224;11.470;2023-05-07T08:26:46;4.33;;;3.57;;
44750;SDS011;30477;48.224;11.470;2023-05-07T08:29:11;3.55;;;3.13;;
44750;SDS011;30477;48.224;11.470;2023-05-07T08:31:37;4.28;;;3.30;;
44750;SDS011;30477;48.224;11.470;2023-05-07T08:34:04;4.65;;;3.78;;
44750;SDS011;30477;48.224;11.470;2023-05-07T08:36:30;4.25;;;3.85;;
44750;SDS011;30477;48.224;11.470;2023-05-07T08:38:55;3.90;;;3.60;;
44750;SDS011;30477;48.224;11.470;2023-05-07T08:41:20;5.77;;;3.53;;
44750;SDS011;30477;48.224;11.470;2023-05-07T08:43:47;6.18;;;4.00;;
44750;SDS011;30477;48.224;11.470;2023-05-07T08:46:16;4.07;;;3.70;;
44750;SDS011;30477;48.224;11.470;2023-05-07T08:48:49;3.90;;;3.50;;
44750;SDS011;30477;48.224;11.470;2023-05-07T08:51:16;4.60;;;3.45;;
44750;SDS011;30477;48.224;11.470;2023-05-07T08:53:45;4.30;;;3.38;;
44750;SDS011;30477;48.224;11.470;2023-05-07T08:56:13;4.57;;;3.25;;
44750;SDS011;30477;48.224;11.470;2023-05-07T08:58:40;4.72;;;3.13;;
44750;SDS011;30477;48.224;11.470;2023-05-07T09:01:09;5.10;;;3.30;;
44750;SDS011;30477;48.224;11.470;2023-05-07T09:03:41;4.18;;;3.47;;
44750;SDS011;30477;48.224;11.470;2023-05-07T09:06:06;4.35;;;3.72;;
44750;SDS011;30477;48.224;11.470;2023-05-07T09:08:32;4.10;;;2.92;;
44750;SDS011;30477;48.224;11.470;2023-05-07T09:10:58;4.15;;;2.58;;
44750;SDS011;30477;48.224;11.470;2023-05-07T09:13:23;4.00;;;3.70;;
44750;SDS011;30477;48.224;11.470;2023-05-07T09:15:49;4.00;;;3.65;;
44750;SDS011;30477;48.224;11.470;2023-05-07T09:18:14;4.13;;;3.67;;
44750;SDS011;30477;48.224;11.470;2023-05-07T09:20:40;3.47;;;3.17;;
44750;SDS011;30477;48.224;11.470;2023-05-07T09:23:06;4.43;;;3.75;;
44750;SDS011;30477;48.224;11.470;2023-05-07T09:25:33;4.68;;;4.25;;
44750;SDS011;30477;48.224;11.470;2023-05-07T09:28:00;4.45;;;4.00;;
44750;SDS011;30477;48.224;11.470;2023-05-07T09:30:30;5.13;;;4.10;;
44750;SDS011;30477;48.224;11.470;2023-05-07T09:32:56;3.80;;;3.50;;
44750;SDS011;30477;48.224;11.470;2023-05-07T09:35:23;5.45;;;4.40;;
44750;SDS011;30477;48.224;11.470;2023-05-07T09:37:58;4.60;;;4.10;;
44750;SDS011;30477;48.224;11.470;2023-05-07T09:40:26;4.72;;;4.20;;
44750;SDS011;30477;48.224;11.470;2023-05-07T09:42:52;4.10;;;3.58;;
44750;SDS011;30477;48.224;11.470;2023-05-07T09:45:27;3.72;;;3.30;;
44750;SDS011;30477;48.224;11.470;2023-05-07T09:47:57;3.53;;;3.22;;
44750;SDS011;30477;48.224;11.470;2023-05-07T09:50:27;4.82;;;3.20;;
44750;SDS011;30477;48.224;11.470;2023-05-07T09:52:57;4.45;;;3.00;;
44750;SDS011;30477;48.224;11.470;2023-05-07T09:55:23;4.82;;;3.85;;
44750;SDS011;30477;48.224;11.470;2023-05-07T10:00:21;3.50;;;3.20;;
44750;SDS011;30477;48.224;11.470;2023-05-07T10:02:50;6.60;;;3.85;;
44750;SDS011;30477;48.224;11.470;2023-05-07T10:05:17;3.45;;;2.95;;
44750;SDS011;30477;48.224;11.470;2023-05-07T10:07:45;3.78;;;2.78;;
44750;SDS011;30477;48.224;11.470;2023-05-07T10:10:11;3.10;;;2.83;;
44750;SDS011;30477;48.224;11.470;2023-05-07T10:12:37;4.45;;;3.38;;
44750;SDS011;30477;48.224;11.470;2023-05-07T10:15:06;4.05;;;3.00;;
44750;SDS011;30477;48.224;11.470;2023-05-07T10:17:32;3.70;;;2.60;;
44750;SDS011;30477;48.224;11.470;2023-05-07T10:20:02;2.97;;;2.30;;
44750;SDS011;30477;48.224;11.470;2023-05-07T10:22:29;4.05;;;2.40;;
44750;SDS011;30477;48.224;11.470;2023-05-07T10:25:02;3.75;;;2.20;;
44750;SDS011;30477;48.224;11.470;2023-05-07T10:27:28;2.38;;;2.17;;
44750;SDS011;30477;48.224;11.470;2023-05-07T10:32:37;5.18;;;3.63;;
44750;SDS011;30477;48.224;11.470;2023-05-07T10:35:06;4.60;;;3.40;;
44750;SDS011;30477;48.224;11.470;2023-05-07T10:37:39;3.28;;;2.80;;
44750;SDS011;30477;48.224;11.470;2023-05-07T10:40:05;4.05;;;3.20;;
44750;SDS011;30477;48.224;11.470;2023-05-07T10:42:32;4.80;;;3.22;;
44750;SDS011;30477;48.224;11.470;2023-05-07T10:44:57;4.63;;;3.58;;
44750;SDS011;30477;48.224;11.470;2023-05-07T10:47:23;4.60;;;2.72;;
44750;SDS011;30477;48.224;11.470;2023-05-07T10:52:14;4.63;;;4.10;;
44750;SDS011;30477;48.224;11.470;2023-05-07T10:54:44;2.78;;;2.55;;
44750;SDS011;30477;48.224;11.470;2023-05-07T10:59:58;4.25;;;3.67;;
44750;SDS011;30477;48.224;11.470;2023-05-07T11:02:38;3.50;;;3.20;;
44750;SDS011;30477;48.224;11.470;2023-05-07T11:05:25;3.17;;;2.60;;
44750;SDS011;30477;48.224;11.470;2023-05-07T11:07:58;4.13;;;2.65;;
44750;SDS011;30477;48.224;11.470;2023-05-07T11:13:16;3.13;;;2.78;;
44750;SDS011;30477;48.224;11.470;2023-05-07T11:15:46;3.58;;;2.42;;
44750;SDS011;30477;48.224;11.470;2023-05-07T11:18:13;3.97;;;2.42;;
44750;SDS011;30477;48.224;11.470;2023-05-07T11:20:50;4.65;;;3.00;;
44750;SDS011;30477;48.224;11.470;2023-05-07T11:26:00;2.95;;;2.67;;
44750;SDS011;30477;48.224;11.470;2023-05-07T11:28:27;2.83;;;2.45;;
44750;SDS011;30477;48.224;11.470;2023-05-07T11:33:19;3.88;;;2.50;;
44750;SDS011;30477;48.224;11.470;2023-05-07T11:35:44;2.95;;;2.10;;
44750;SDS011;30477;48.224;11.470;2023-05-07T11:38:10;3.45;;;2.40;;
44750;SDS011;30477;48.224;11.470;2023-05-07T11:40:49;3.38;;;2.55;;
44750;SDS011;30477;48.224;11.470;2023-05-07T11:43:16;3.50;;;2.20;;
44750;SDS011;30477;48.224;11.470;2023-05-07T11:45:41;6.50;;;2.20;;
44750;SDS011;30477;48.224;11.470;2023-05-07T11:48:06;3.13;;;2.20;;
44750;SDS011;30477;48.224;11.470;2023-05-07T11:50:32;5.40;;;2.70;;
44750;SDS011;30477;48.224;11.470;2023-05-07T11:52:57;3.50;;;2.70;;
44750;SDS011;30477;48.224;11.470;2023-05-07T11:55:23;4.93;;;3.30;;
44750;SDS011;30477;48.224;11.470;2023-05-07T11:57:49;3.75;;;3.33;;
44750;SDS011;30477;48.224;11.470;2023-05-07T12:00:15;5.18;;;3.65;;
44750;SDS011;30477;48.224;11.470;2023-05-07T12:05:07;3.33;;;3.00;;
44750;SDS011;30477;48.224;11.470;2023-05-07T12:07:33;4.18;;;3.78;;
44750;SDS011;30477;48.224;11.470;2023-05-07T12:09:59;4.18;;;3.30;;
44750;SDS011;30477;48.224;11.470;2023-05-07T12:12:24;4.82;;;3.10;;
44750;SDS011;30477;48.224;11.470;2023-05-07T12:14:51;3.35;;;2.95;;
44750;SDS011;30477;48.224;11.470;2023-05-07T12:17:17;3.30;;;3.03;;
44750;SDS011;30477;48.224;11.470;2023-05-07T12:19:43;4.35;;;2.78;;
44750;SDS011;30477;48.224;11.470;2023-05-07T12:22:10;3.60;;;2.90;;
44750;SDS011;30477;48.224;11.470;2023-05-07T12:27:14;4.82;;;2.80;;
44750;SDS011;30477;48.224;11.470;2023-05-07T12:32:15;3.28;;;2.53;;
44750;SDS011;30477;48.224;11.470;2023-05-07T12:34:44;3.10;;;2.80;;
44750;SDS011;30477;48.224;11.470;2023-05-07T12:39:35;3.03;;;2.72;;
44750;SDS011;30477;48.224;11.470;2023-05-07T12:42:01;3.60;;;2.93;;
44750;SDS011;30477;48.224;11.470;2023-05-07T12:44:30;2.67;;;2.47;;
44750;SDS011;30477;48.224;11.470;2023-05-07T12:46:56;4.57;;;2.60;;
44750;SDS011;30477;48.224;11.470;2023-05-07T12:49:22;4.53;;;2.78;;
44750;SDS011;30477;48.224;11.470;2023-05-07T12:51:49;5.38;;;2.58;;
44750;SDS011;30477;48.224;11.470;2023-05-07T12:54:34;3.03;;;2.67;;
44750;SDS011;30477;48.224;11.470;2023-05-07T12:57:06;4.22;;;2.40;;
44750;SDS011;30477;48.224;11.470;2023-05-07T12:59:39;4.78;;;2.40;;
44750;SDS011;30477;48.224;11.470;2023-05-07T13:02:05;3.00;;;2.70;;
44750;SDS011;30477;48.224;11.470;2023-05-07T13:04:32;3.00;;;2.63;;
44750;SDS011;30477;48.224;11.470;2023-05-07T13:06:58;3.40;;;2.70;;
44750;SDS011;30477;48.224;11.470;2023-05-07T13:09:24;2.60;;;2.33;;
44750;SDS011;30477;48.224;11.470;2023-05-07T13:11:49;8.63;;;3.50;;
44750;SDS011;30477;48.224;11.470;2023-05-07T13:14:15;3.37;;;3.03;;
44750;SDS011;30477;48.224;11.470;2023-05-07T13:16:40;3.17;;;2.53;;
44750;SDS011;30477;48.224;11.470;2023-05-07T13:19:05;3.33;;;2.70;;
44750;SDS011;30477;48.224;11.470;2023-05-07T13:21:31;2.60;;;2.40;;
44750;SDS011;30477;48.224;11.470;2023-05-07T13:23:59;5.43;;;2.70;;
44750;SDS011;30477;48.224;11.470;2023-05-07T13:26:25;2.87;;;2.60;;
44750;SDS011;30477;48.224;11.470;2023-05-07T13:28:50;3.97;;;3.20;;
44750;SDS011;30477;48.224;11.470;2023-05-07T13:31:16;4.25;;;3.03;;
44750;SDS011;30477;48.224;11.470;2023-05-07T13:36:07;6.00;;;3.70;;
44750;SDS011;30477;48.224;11.470;2023-05-07T13:38:33;3.80;;;3.47;;
44750;SDS011;30477;48.224;11.470;2023-05-07T13:40:58;4.10;;;3.70;;
44750;SDS011;30477;48.224;11.470;2023-05-07T13:43:24;3.53;;;2.77;;
44750;SDS011;30477;48.224;11.470;2023-05-07T13:48:15;3.60;;;3.30;;
44750;SDS011;30477;48.224;11.470;2023-05-07T13:50:40;4.10;;;3.70;;
44750;SDS011;30477;48.224;11.470;2023-05-07T13:53:07;5.77;;;3.73;;
44750;SDS011;30477;48.224;11.470;2023-05-07T13:55:33;5.18;;;3.40;;
44750;SDS011;30477;48.224;11.470;2023-05-07T13:57:59;4.13;;;3.60;;
44750;SDS011;30477;48.224;11.470;2023-05-07T14:00:26;4.93;;;4.00;;
44750;SDS011;30477;48.224;11.470;2023-05-07T14:02:52;5.85;;;4.13;;
44750;SDS011;30477;48.224;11.470;2023-05-07T14:05:18;4.25;;;3.80;;
44750;SDS011;30477;48.224;11.470;2023-05-07T14:07:43;5.68;;;3.45;;
44750;SDS011;30477;48.224;11.470;2023-05-07T14:10:09;7.63;;;3.70;;
44750;SDS011;30477;48.224;11.470;2023-05-07T14:12:36;3.88;;;3.10;;
44750;SDS011;30477;48.224;11.470;2023-05-07T14:15:01;9.57;;;3.92;;
44750;SDS011;30477;48.224;11.470;2023-05-07T14:17:26;3.83;;;3.20;;
44750;SDS011;30477;48.224;11.470;2023-05-07T14:19:52;5.30;;;4.23;;
44750;SDS011;30477;48.224;11.470;2023-05-07T14:22:19;4.85;;;3.50;;
44750;SDS011;30477;48.224;11.470;2023-05-07T14:24:46;5.85;;;3.80;;
44750;SDS011;30477;48.224;11.470;2023-05-07T14:27:11;4.23;;;3.60;;
44750;SDS011;30477;48.224;11.470;2023-05-07T14:29:36;4.53;;;3.00;;
44750;SDS011;30477;48.224;11.470;2023-05-07T14:32:02;4.93;;;4.23;;
44750;SDS011;30477;48.224;11.470;2023-05-07T14:34:28;4.95;;;3.47;;
44750;SDS011;30477;48.224;11.470;2023-05-07T14:36:54;4.03;;;3.60;;
44750;SDS011;30477;48.224;11.470;2023-05-07T14:41:45;3.77;;;3.27;;
44750;SDS011;30477;48.224;11.470;2023-05-07T14:44:11;3.50;;;3.20;;
44750;SDS011;30477;48.224;11.470;2023-05-07T14:46:36;6.43;;;3.10;;
44750;SDS011;30477;48.224;11.470;2023-05-07T14:49:02;4.20;;;3.20;;
44750;SDS011;30477;48.224;11.470;2023-05-07T14:51:27;3.45;;;3.15;;
44750;SDS011;30477;48.224;11.470;2023-05-07T14:53:53;3.70;;;3.30;;
44750;SDS011;30477;48.224;11.470;2023-05-07T14:56:19;4.00;;;3.60;;
44750;SDS011;30477;48.224;11.470;2023-05-07T14:58:46;4.82;;;2.70;;
44750;SDS011;30477;48.224;11.470;2023-05-07T15:01:13;3.53;;;3.15;;
44750;SDS011;30477;48.224;11.470;2023-05-07T15:03:39;4.28;;;3.28;;
44750;SDS011;30477;48.224;11.470;2023-05-07T15:06:04;3.20;;;2.90;;
44750;SDS011;30477;48.224;11.470;2023-05-07T15:08:30;3.33;;;2.75;;
44750;SDS011;30477;48.224;11.470;2023-05-07T15:10:55;4.03;;;3.07;;
44750;SDS011;30477;48.224;11.470;2023-05-07T15:13:21;4.03;;;2.80;;
44750;SDS011;30477;48.224;11.470;2023-05-07T15:15:46;4.43;;;2.90;;
44750;SDS011;30477;48.224;11.470;2023-05-07T15:18:12;3.10;;;2.80;;
44750;SDS011;30477;48.224;11.470;2023-05-07T15:20:38;3.05;;;2.85;;
44750;SDS011;30477;48.224;11.470;2023-05-07T15:23:03;3.13;;;2.83;;
44750;SDS011;30477;48.224;11.470;2023-05-07T15:25:34;4.57;;;2.90;;
44750;SDS011;30477;48.224;11.470;2023-05-07T15:28:00;4.30;;;2.72;;
44750;SDS011;30477;48.224;11.470;2023-05-07T15:30:25;3.60;;;2.70;;
44750;SDS011;30477;48.224;11.470;2023-05-07T15:32:51;4.90;;;2.60;;
44750;SDS011;30477;48.224;11.470;2023-05-07T15:35:16;4.07;;;2.75;;
44750;SDS011;30477;48.224;11.470;2023-05-07T15:37:46;2.67;;;2.30;;
44750;SDS011;30477;48.224;11.470;2023-05-07T15:40:12;4.53;;;2.80;;
44750;SDS011;30477;48.224;11.470;2023-05-07T15:42:37;2.58;;;2.33;;
44750;SDS011;30477;48.224;11.470;2023-05-07T15:45:02;4.60;;;2.57;;
44750;SDS011;30477;48.224;11.470;2023-05-07T15:47:28;2.60;;;2.40;;